Time;durP1;ratioP1;P1;durP2;ratioP2;P2;SDS_P1;SDS_P2;PMS_P1;PMS_P2;Temp;Humidity;BMP_temperature;BMP_pressure;BME280_temperature;BME280_humidity;BME280_pressure;Samples;Min_cycle;Max_cycle;Signal;HPM_P1;HPM_P2
2022/04/11 00:00:25;;;;;;;10.80;7.07;;;4.60;99.90;;;;;;5049600;28;20191;-80
2022/04/11 00:02:55;;;;;;;11.63;6.97;;;5.00;99.90;;;;;;5046029;28;20214;-83
2022/04/11 00:05:22;;;;;;;8.63;6.45;;;4.40;99.90;;;;;;5072163;22;20226;-86
2022/04/11 00:07:49;;;;;;;11.48;7.10;;;4.90;99.90;;;;;;5060140;28;20236;-87
2022/04/11 00:10:17;;;;;;;10.32;6.43;;;4.50;99.90;;;;;;5060546;28;20216;-88
2022/04/11 00:12:44;;;;;;;12.68;6.65;;;4.80;99.90;;;;;;5066244;28;20233;-87
2022/04/11 00:15:12;;;;;;;9.70;6.95;;;4.90;99.90;;;;;;5058006;28;20599;-86
2022/04/11 00:17:39;;;;;;;13.05;6.72;;;4.60;99.90;;;;;;5058356;28;20210;-87
2022/04/11 00:20:07;;;;;;;10.00;6.25;;;4.40;99.90;;;;;;5058809;28;20240;-86
2022/04/11 00:22:35;;;;;;;10.00;6.35;;;4.70;99.90;;;;;;5062047;28;20236;-88
2022/04/11 00:25:02;;;;;;;9.95;6.80;;;4.40;99.90;;;;;;5063026;28;20226;-87
2022/04/11 00:27:29;;;;;;;10.40;6.70;;;4.90;99.90;;;;;;5060411;28;20254;-88
2022/04/11 00:29:56;;;;;;;13.32;7.63;;;4.80;99.90;;;;;;5059242;28;20201;-89
2022/04/11 00:32:24;;;;;;;11.18;8.55;;;4.90;99.90;;;;;;5059512;28;20629;-88
2022/04/11 00:34:51;;;;;;;10.63;7.03;;;4.40;99.90;;;;;;5059315;28;20198;-87
2022/04/11 00:37:18;;;;;;;11.68;7.03;;;4.60;99.90;;;;;;5059264;28;20285;-87
2022/04/11 00:39:45;;;;;;;11.45;7.45;;;4.50;99.90;;;;;;5059842;28;20214;-87
2022/04/11 00:42:13;;;;;;;9.77;7.30;;;4.10;99.90;;;;;;5062611;28;20631;-87
2022/04/11 00:44:40;;;;;;;10.57;7.05;;;4.40;99.90;;;;;;5067076;28;20209;-85
2022/04/11 00:47:08;;;;;;;10.13;7.63;;;4.60;99.90;;;;;;5076463;28;20237;-87
2022/04/11 00:49:41;;;;;;;10.13;7.10;;;4.80;99.90;;;;;;5072576;28;20210;-86
2022/04/11 00:52:21;;;;;;;11.30;7.10;;;4.80;99.90;;;;;;5070570;28;20568;-90
2022/04/11 00:55:02;;;;;;;12.00;7.80;;;4.90;99.90;;;;;;5074555;28;20262;-88
2022/04/11 00:57:29;;;;;;;10.02;7.05;;;5.00;99.90;;;;;;5073107;28;20182;-86
2022/04/11 00:59:56;;;;;;;10.88;7.30;;;4.80;99.90;;;;;;5070978;28;20213;-88
2022/04/11 01:02:23;;;;;;;11.57;8.63;;;4.90;99.90;;;;;;5064353;28;20297;-88
2022/04/11 01:04:51;;;;;;;7.95;6.05;;;4.80;99.90;;;;;;5072160;28;20273;-87
2022/04/11 01:07:19;;;;;;;9.90;7.50;;;4.60;99.90;;;;;;5073353;28;20221;-86
2022/04/11 01:09:46;;;;;;;11.82;7.28;;;4.80;99.90;;;;;;5069213;28;20206;-88
2022/04/11 01:12:15;;;;;;;13.23;8.30;;;5.10;99.90;;;;;;5061100;28;20217;-87
2022/04/11 01:14:42;;;;;;;9.07;6.85;;;4.90;99.90;;;;;;5071365;28;20205;-88
2022/04/11 01:17:10;;;;;;;8.80;7.55;;;4.90;99.90;;;;;;5070992;28;20509;-87
2022/04/11 01:19:36;;;;;;;11.48;7.38;;;4.90;99.90;;;;;;5074348;28;20278;-86
2022/04/11 01:22:05;;;;;;;13.02;8.15;;;4.50;99.90;;;;;;5072044;28;20201;-86
2022/04/11 01:24:34;;;;;;;10.40;7.35;;;4.90;99.90;;;;;;5078661;28;20265;-86
2022/04/11 01:27:01;;;;;;;10.10;7.32;;;4.80;99.90;;;;;;5072869;28;20598;-85
2022/04/11 01:29:28;;;;;;;12.77;7.30;;;4.50;99.90;;;;;;5060437;28;20259;-85
2022/04/11 01:31:55;;;;;;;9.05;7.05;;;4.60;99.90;;;;;;5059347;28;20659;-84
2022/04/11 01:34:22;;;;;;;11.40;7.35;;;4.70;99.90;;;;;;5059728;28;20208;-85
2022/04/11 01:36:49;;;;;;;9.85;7.35;;;4.80;99.90;;;;;;5059829;28;20303;-85
2022/04/11 01:39:17;;;;;;;13.30;7.65;;;4.70;99.90;;;;;;5072376;28;20282;-87
2022/04/11 01:41:44;;;;;;;10.10;7.43;;;4.30;99.90;;;;;;5077078;28;20263;-87
2022/04/11 01:44:11;;;;;;;10.23;7.75;;;4.30;99.90;;;;;;5060311;28;20229;-86
2022/04/11 01:46:38;;;;;;;10.20;8.15;;;4.70;99.90;;;;;;5062659;28;20308;-86
2022/04/11 01:49:05;;;;;;;18.63;7.90;;;4.60;99.90;;;;;;5072805;28;20236;-86
2022/04/11 01:51:32;;;;;;;8.88;6.82;;;4.70;99.90;;;;;;5064119;28;20289;-86
2022/04/11 01:53:59;;;;;;;14.73;8.90;;;4.70;99.90;;;;;;5060346;28;20320;-85
2022/04/11 01:56:27;;;;;;;19.85;8.02;;;4.70;99.90;;;;;;5069793;28;20226;-86
2022/04/11 01:58:54;;;;;;;11.40;7.50;;;4.40;99.90;;;;;;5072090;28;20210;-86
2022/04/11 02:01:21;;;;;;;11.20;8.00;;;4.70;99.90;;;;;;5065802;28;20222;-87
2022/04/11 02:03:48;;;;;;;10.20;8.45;;;4.80;99.90;;;;;;5063886;28;20198;-87
2022/04/11 02:06:15;;;;;;;10.65;8.43;;;4.70;99.90;;;;;;5073108;28;20260;-87
2022/04/11 02:08:42;;;;;;;11.18;8.75;;;4.40;99.90;;;;;;5071332;28;20210;-87
2022/04/11 02:11:09;;;;;;;13.48;7.95;;;4.70;99.90;;;;;;5062736;28;20205;-87
2022/04/11 02:13:37;;;;;;;8.32;7.43;;;4.90;99.90;;;;;;5062481;28;20607;-85
2022/04/11 02:16:04;;;;;;;11.07;7.38;;;4.80;99.90;;;;;;5069073;28;20222;-86
2022/04/11 02:18:31;;;;;;;11.60;7.85;;;4.80;99.90;;;;;;5074127;28;20274;-87
2022/04/11 02:20:58;;;;;;;11.30;8.27;;;4.80;99.90;;;;;;5075534;28;20639;-87
2022/04/11 02:23:25;;;;;;;12.45;8.23;;;4.70;99.90;;;;;;5066992;28;20240;-87
2022/04/11 02:25:52;;;;;;;14.90;8.57;;;4.90;99.90;;;;;;5066478;28;20313;-85
2022/04/11 02:28:20;;;;;;;10.65;8.63;;;4.40;99.90;;;;;;5066544;28;20221;-86
2022/04/11 02:30:49;;;;;;;11.77;8.23;;;4.80;99.90;;;;;;5070272;28;20195;-87
2022/04/11 02:33:16;;;;;;;12.23;8.75;;;4.90;99.90;;;;;;5065233;28;20703;-87
2022/04/11 02:35:42;;;;;;;14.38;8.68;;;4.90;99.90;;;;;;5062366;28;20226;-87
2022/04/11 02:38:09;;;;;;;11.80;8.27;;;4.60;99.90;;;;;;5074356;28;20241;-87
2022/04/11 02:40:36;;;;;;;13.23;8.80;;;5.00;99.90;;;;;;5063178;28;20206;-87
2022/04/11 02:43:03;;;;;;;13.15;7.35;;;4.80;99.90;;;;;;5061180;28;20289;-87
2022/04/11 02:45:30;;;;;;;12.50;9.13;;;4.90;99.90;;;;;;5060349;28;20239;-85
2022/04/11 02:47:58;;;;;;;11.95;8.75;;;4.90;99.90;;;;;;5063106;28;20674;-87
2022/04/11 02:50:25;;;;;;;13.40;8.40;;;4.50;99.90;;;;;;5075409;28;20197;-86
2022/04/11 02:52:52;;;;;;;11.15;8.15;;;4.40;99.90;;;;;;5079388;28;20210;-88
2022/04/11 02:55:21;;;;;;;12.55;8.55;;;4.80;99.90;;;;;;5068377;28;20285;-86
2022/04/11 02:57:48;;;;;;;10.30;8.52;;;4.80;99.90;;;;;;5063978;28;20206;-86
2022/04/11 03:00:15;;;;;;;11.45;8.70;;;4.30;99.90;;;;;;5063648;28;20212;-86
2022/04/11 03:02:42;;;;;;;11.93;8.30;;;4.80;99.90;;;;;;5063937;28;20208;-84
2022/04/11 03:05:11;;;;;;;12.68;8.70;;;4.90;99.90;;;;;;5060933;28;20271;-85
2022/04/11 03:07:38;;;;;;;17.88;8.90;;;4.60;99.90;;;;;;5059717;28;20201;-85
2022/04/11 03:10:06;;;;;;;13.73;8.45;;;4.60;99.90;;;;;;5058748;28;20296;-86
2022/04/11 03:12:34;;;;;;;10.68;8.50;;;4.90;99.90;;;;;;5059754;28;20277;-86
2022/04/11 03:15:01;;;;;;;12.40;8.70;;;4.90;99.90;;;;;;5059597;28;20230;-85
2022/04/11 03:17:27;;;;;;;15.65;8.98;;;4.70;99.90;;;;;;5060514;28;20276;-85
2022/04/11 03:19:54;;;;;;;11.82;8.82;;;4.70;99.90;;;;;;5068286;28;20206;-86
2022/04/11 03:22:23;;;;;;;12.65;8.65;;;4.50;99.90;;;;;;5065259;28;20241;-85
2022/04/11 03:24:50;;;;;;;14.38;8.80;;;4.50;99.90;;;;;;5070484;28;20226;-86
2022/04/11 03:27:17;;;;;;;19.30;8.63;;;4.80;99.90;;;;;;5072832;28;20225;-87
2022/04/11 03:29:44;;;;;;;12.55;8.82;;;4.80;99.90;;;;;;5064075;28;20292;-86
2022/04/11 03:32:11;;;;;;;12.23;8.95;;;5.10;99.90;;;;;;5061158;28;20539;-87
2022/04/11 03:34:38;;;;;;;10.95;7.85;;;5.10;99.90;;;;;;5063227;28;20289;-84
2022/04/11 03:37:05;;;;;;;13.07;9.52;;;5.20;99.90;;;;;;5068373;28;20224;-85
2022/04/11 03:39:33;;;;;;;13.27;8.93;;;5.00;99.90;;;;;;5077257;28;20210;-86
2022/04/11 03:42:00;;;;;;;13.10;8.88;;;5.00;99.90;;;;;;5074444;28;20670;-88
2022/04/11 03:44:27;;;;;;;11.32;8.52;;;5.20;99.90;;;;;;5069288;28;20202;-87
2022/04/11 03:46:54;;;;;;;11.27;8.88;;;4.90;99.90;;;;;;5061572;28;20639;-86
2022/04/11 03:49:21;;;;;;;9.90;7.82;;;4.80;99.90;;;;;;5062275;28;20242;-86
2022/04/11 03:51:48;;;;;;;12.70;9.27;;;5.10;99.90;;;;;;5063500;28;20285;-86
2022/04/11 03:54:15;;;;;;;10.30;8.25;;;5.10;99.90;;;;;;5072756;28;20213;-85
2022/04/11 03:56:43;;;;;;;11.18;8.25;;;5.10;99.90;;;;;;5072354;28;20317;-86
2022/04/11 03:59:10;;;;;;;12.57;9.00;;;4.90;99.90;;;;;;5063421;28;20206;-85
2022/04/11 04:01:37;;;;;;;11.40;8.15;;;4.40;99.90;;;;;;5062477;28;20214;-86
2022/04/11 04:04:04;;;;;;;13.13;8.75;;;4.60;99.90;;;;;;5072160;28;20198;-85
2022/04/11 04:06:31;;;;;;;11.50;8.65;;;4.80;99.90;;;;;;5060971;28;20246;-86
2022/04/11 04:08:58;;;;;;;14.07;8.90;;;4.80;99.90;;;;;;5059988;28;20216;-84
2022/04/11 04:11:25;;;;;;;13.50;9.05;;;4.80;99.90;;;;;;5058407;28;20365;-86
2022/04/11 04:13:53;;;;;;;12.93;9.15;;;4.90;99.90;;;;;;5058385;28;20252;-88
2022/04/11 04:16:20;;;;;;;14.57;9.18;;;4.40;99.90;;;;;;5065214;28;20392;-88
2022/04/11 04:18:47;;;;;;;13.40;8.98;;;4.70;99.90;;;;;;5067104;28;20214;-88
2022/04/11 04:21:14;;;;;;;12.65;9.05;;;4.30;99.90;;;;;;5060067;28;20282;-87
2022/04/11 04:23:41;;;;;;;10.07;7.85;;;4.70;99.90;;;;;;5060027;28;20237;-87
2022/04/11 04:26:08;;;;;;;13.15;8.80;;;4.90;99.90;;;;;;5059254;28;20268;-86
2022/04/11 04:28:35;;;;;;;12.02;9.05;;;4.70;99.90;;;;;;5061981;28;20238;-86
2022/04/11 04:31:03;;;;;;;15.85;9.02;;;4.90;99.90;;;;;;5064550;28;20213;-84
2022/04/11 04:33:31;;;;;;;12.82;8.75;;;4.40;99.90;;;;;;5057909;28;20222;-86
2022/04/11 04:35:58;;;;;;;14.82;9.55;;;4.90;99.90;;;;;;5059355;28;20233;-87
2022/04/11 04:38:25;;;;;;;11.40;8.98;;;4.80;99.90;;;;;;5061779;28;20206;-86
2022/04/11 04:40:52;;;;;;;13.98;9.20;;;4.90;99.90;;;;;;5068984;28;20225;-86
2022/04/11 04:43:19;;;;;;;12.57;8.88;;;4.50;99.90;;;;;;5071693;28;20369;-86
2022/04/11 04:45:46;;;;;;;9.80;7.70;;;4.80;99.90;;;;;;5061131;28;20304;-86
2022/04/11 04:48:14;;;;;;;11.90;9.20;;;4.20;99.90;;;;;;5060239;28;20263;-86
2022/04/11 04:50:41;;;;;;;16.60;9.02;;;4.70;99.90;;;;;;5061422;28;20210;-86
2022/04/11 04:53:08;;;;;;;11.52;7.95;;;4.70;99.90;;;;;;5066262;28;20233;-88
2022/04/11 04:55:35;;;;;;;12.60;9.18;;;4.50;99.90;;;;;;5063992;28;20229;-88
2022/04/11 04:58:02;;;;;;;12.43;8.38;;;4.70;99.90;;;;;;5058960;28;20281;-88
2022/04/11 05:00:29;;;;;;;12.05;8.32;;;4.40;99.90;;;;;;5061489;28;20238;-85
2022/04/11 05:02:58;;;;;;;11.63;8.32;;;4.40;99.90;;;;;;5062803;28;20194;-85
2022/04/11 05:05:29;;;;;;;11.60;7.75;;;4.60;99.90;;;;;;5057827;28;20265;-87
2022/04/11 05:07:56;;;;;;;11.23;8.48;;;4.30;99.90;;;;;;5058036;28;20209;-87
2022/04/11 05:10:23;;;;;;;13.48;8.77;;;4.40;99.90;;;;;;5058621;28;20296;-87
2022/04/11 05:12:50;;;;;;;13.18;8.52;;;4.30;99.90;;;;;;5059488;28;20282;-85
2022/04/11 05:15:17;;;;;;;16.85;9.18;;;4.30;99.90;;;;;;5062736;28;20234;-86
2022/04/11 05:17:44;;;;;;;12.55;8.70;;;4.00;99.90;;;;;;5060323;28;20292;-87
2022/04/11 05:20:11;;;;;;;14.30;10.18;;;4.40;99.90;;;;;;5057556;28;20296;-83
2022/04/11 05:22:39;;;;;;;15.50;9.45;;;4.30;99.90;;;;;;5059816;28;20292;-84
2022/04/11 05:25:07;;;;;;;11.57;8.82;;;4.00;99.90;;;;;;5061475;28;20572;-85
2022/04/11 05:27:34;;;;;;;13.73;9.25;;;4.30;99.90;;;;;;5067242;28;20256;-86
2022/04/11 05:30:01;;;;;;;11.98;8.98;;;4.50;99.90;;;;;;5060521;28;20389;-85
2022/04/11 05:32:28;;;;;;;13.00;9.63;;;4.30;99.90;;;;;;5060768;28;20669;-85
2022/04/11 05:34:54;;;;;;;14.40;9.90;;;4.30;99.90;;;;;;5061968;28;20288;-86
2022/04/11 05:37:21;;;;;;;11.27;8.27;;;4.60;99.90;;;;;;5069930;28;20273;-87
2022/04/11 05:39:50;;;;;;;14.60;9.77;;;4.50;99.90;;;;;;5062339;28;20250;-85
2022/04/11 05:42:16;;;;;;;14.32;8.90;;;4.40;99.90;;;;;;5060627;28;20226;-85
2022/04/11 05:44:43;;;;;;;15.52;8.35;;;4.60;99.90;;;;;;5060976;28;20214;-85
2022/04/11 05:47:12;;;;;;;14.20;9.43;;;4.70;99.90;;;;;;5061137;28;20245;-85
2022/04/11 05:49:39;;;;;;;14.80;8.90;;;4.30;99.90;;;;;;5063262;28;20233;-85
2022/04/11 05:52:07;;;;;;;14.48;9.10;;;4.50;99.90;;;;;;5068657;28;20252;-85
2022/04/11 05:54:37;;;;;;;12.75;8.75;;;4.80;99.90;;;;;;5074666;28;20222;-86
2022/04/11 05:57:06;;;;;;;10.80;8.23;;;4.60;99.90;;;;;;5070890;28;20220;-88
2022/04/11 05:59:32;;;;;;;11.52;9.00;;;4.50;99.90;;;;;;5072143;28;20214;-87
2022/04/11 06:01:59;;;;;;;14.70;9.80;;;4.70;99.90;;;;;;5069439;28;20210;-88
2022/04/11 06:04:26;;;;;;;11.77;9.20;;;4.90;99.90;;;;;;5065647;28;20198;-88
2022/04/11 06:06:53;;;;;;;12.52;9.35;;;4.70;99.90;;;;;;5066649;28;20262;-88
2022/04/11 06:09:20;;;;;;;13.90;9.98;;;5.20;99.90;;;;;;5066895;28;20561;-87
2022/04/11 06:11:47;;;;;;;15.18;8.70;;;5.10;99.90;;;;;;5068035;28;20245;-88
2022/04/11 06:16:57;;;;;;;15.02;9.52;;;5.30;99.90;;;;;;4120313;26;20582;-83
2022/04/11 06:19:29;;;;;;;15.98;8.52;;;5.40;99.90;;;;;;5060820;28;20206;-83
2022/04/11 06:22:23;;;;;;;;;;;;;;;;;;;;;
2022/04/11 06:25:38;;;;;;;14.38;8.70;;;5.50;99.90;;;;;;5061706;28;20240;-86
2022/04/11 08:56:40;;;;;;;8.23;3.83;;;11.20;92.70;;;;;;5017893;28;20497;-84
2022/04/11 09:03:54;;;;;;;6.40;3.40;;;11.40;92.40;;;;;;4862353;29;20453;-86
2022/04/11 11:54:59;;;;;;;5.07;2.50;;;14.40;62.20;;;;;;4928805;28;20556;-85
2022/04/11 12:15:21;;;;;;;5.67;2.50;;;14.90;61.20;;;;;;5084800;23;20503;-88
2022/04/11 12:18:00;;;;;;;7.13;2.67;;;15.00;62.30;;;;;;5059941;28;20435;-87
2022/04/11 12:20:42;;;;;;;4.17;2.70;;;15.10;60.70;;;;;;5061106;28;20538;-87
2022/04/11 12:23:11;;;;;;;4.80;2.53;;;15.00;59.20;;;;;;5060468;28;20778;-88
2022/04/11 12:25:41;;;;;;;4.90;3.27;;;15.10;58.90;;;;;;5068573;28;20463;-86
2022/04/11 12:28:29;;;;;;;5.30;3.40;;;15.10;58.90;;;;;;5061141;28;20445;-87
2022/04/11 12:31:13;;;;;;;6.33;3.27;;;15.20;59.50;;;;;;5059342;28;20427;-85
2022/04/11 12:34:15;;;;;;;7.63;3.50;;;15.20;59.30;;;;;;5059875;28;20429;-89
2022/04/11 12:36:58;;;;;;;5.07;2.90;;;15.30;59.30;;;;;;5062376;28;20434;-88
2022/04/11 12:39:25;;;;;;;6.37;3.53;;;15.40;59.20;;;;;;5066120;28;20415;-88
2022/04/11 12:41:55;;;;;;;5.67;3.67;;;15.40;58.60;;;;;;5066662;28;20551;-88
2022/04/11 12:44:36;;;;;;;8.47;2.90;;;15.50;58.70;;;;;;5065458;28;20464;-87
2022/04/11 12:47:30;;;;;;;5.70;3.10;;;15.60;57.80;;;;;;5070482;28;20490;-87
2022/04/11 12:50:08;;;;;;;5.60;2.73;;;15.70;57.80;;;;;;5067497;28;20452;-88
2022/04/11 12:52:46;;;;;;;7.30;3.33;;;15.80;57.80;;;;;;5063723;28;20440;-88
2022/04/11 12:55:14;;;;;;;5.10;3.43;;;15.80;57.60;;;;;;5062206;28;20540;-87
2022/04/11 12:57:45;;;;;;;4.20;2.50;;;15.80;57.60;;;;;;5061247;28;20461;-87
2022/04/11 13:00:18;;;;;;;4.70;2.90;;;15.80;57.20;;;;;;5064577;28;20416;-87
2022/04/11 13:02:46;;;;;;;4.27;2.60;;;15.80;55.70;;;;;;5074712;28;20467;-87
2022/04/11 13:05:15;;;;;;;4.70;2.73;;;15.70;55.70;;;;;;5068005;28;20450;-87
2022/04/11 13:07:43;;;;;;;5.43;3.33;;;15.60;56.40;;;;;;5062330;28;20571;-88
2022/04/11 13:10:10;;;;;;;5.43;3.20;;;15.70;56.80;;;;;;5063140;28;20457;-86
2022/04/11 13:12:37;;;;;;;5.63;2.83;;;15.80;57.80;;;;;;5061695;28;20468;-87
2022/04/11 13:15:04;;;;;;;4.63;2.63;;;15.90;55.80;;;;;;5061785;28;20518;-86
2022/04/11 13:20:23;;;;;;;5.70;3.37;;;16.00;56.20;;;;;;5067775;28;20416;-85
2022/04/11 13:22:50;;;;;;;5.63;3.10;;;16.10;56.20;;;;;;5067542;28;20486;-85
2022/04/11 13:25:17;;;;;;;6.07;3.80;;;15.90;56.70;;;;;;5065161;28;20494;-86
2022/04/11 13:27:44;;;;;;;5.63;3.13;;;16.00;57.00;;;;;;5064623;28;20487;-86
2022/04/11 13:30:12;;;;;;;5.97;3.60;;;16.10;57.20;;;;;;5072372;28;20452;-87
2022/04/11 13:32:40;;;;;;;5.07;3.37;;;16.20;57.60;;;;;;5067431;28;20610;-89
2022/04/11 13:35:09;;;;;;;6.57;3.80;;;16.30;58.00;;;;;;5067316;28;20462;-86
2022/04/11 13:37:36;;;;;;;8.03;3.77;;;16.40;57.80;;;;;;5067863;28;20617;-86
2022/04/11 13:40:05;;;;;;;5.60;3.40;;;16.60;57.50;;;;;;5068870;28;20452;-87
2022/04/11 13:42:34;;;;;;;8.60;4.50;;;16.70;57.00;;;;;;5069289;28;20491;-85
2022/04/11 13:45:01;;;;;;;8.27;3.60;;;16.80;56.70;;;;;;5068083;28;20492;-85
2022/04/11 13:47:28;;;;;;;6.77;4.20;;;16.70;56.10;;;;;;5067125;28;20451;-85
2022/04/11 13:49:57;;;;;;;6.40;4.40;;;16.70;56.30;;;;;;5067457;28;20452;-86
2022/04/11 13:52:24;;;;;;;7.47;4.30;;;16.60;56.30;;;;;;5073858;28;20531;-85
2022/04/11 13:54:51;;;;;;;5.40;3.40;;;16.50;56.60;;;;;;5079980;28;20411;-85
2022/04/11 13:57:18;;;;;;;5.00;3.20;;;16.50;56.10;;;;;;5076151;28;20495;-86
2022/04/11 13:59:45;;;;;;;5.43;3.43;;;16.60;55.90;;;;;;5071153;28;20444;-87
2022/04/11 14:02:13;;;;;;;8.17;5.10;;;16.50;56.30;;;;;;5073552;28;20423;-89
2022/04/11 14:04:40;;;;;;;7.30;4.67;;;16.50;56.70;;;;;;5070793;28;20411;-88
2022/04/11 14:07:09;;;;;;;7.43;3.93;;;16.70;56.60;;;;;;5069144;28;20900;-86
2022/04/11 14:09:35;;;;;;;5.63;3.90;;;16.70;56.50;;;;;;5066471;28;20423;-87
2022/04/11 14:12:03;;;;;;;6.90;3.97;;;16.80;56.00;;;;;;5066326;28;20448;-87
2022/04/11 14:14:30;;;;;;;5.00;3.40;;;17.00;55.90;;;;;;5066951;28;20940;-86
2022/04/11 14:16:58;;;;;;;5.60;3.60;;;17.00;56.20;;;;;;5068764;28;20485;-87
2022/04/11 14:19:25;;;;;;;5.10;3.37;;;16.90;56.00;;;;;;5073094;28;20517;-86
2022/04/11 14:21:54;;;;;;;7.80;4.10;;;17.00;56.80;;;;;;5071193;28;20421;-88
2022/04/11 14:24:23;;;;;;;6.80;3.63;;;17.10;56.40;;;;;;5069134;28;20416;-88
2022/04/11 14:26:50;;;;;;;6.33;3.67;;;17.20;56.00;;;;;;5067562;28;20478;-87
2022/04/11 14:29:17;;;;;;;5.53;3.37;;;17.20;55.90;;;;;;5068002;28;20461;-86
2022/04/11 14:31:44;;;;;;;7.10;4.10;;;17.30;56.20;;;;;;5067272;28;20447;-85
2022/04/11 14:34:11;;;;;;;7.00;3.80;;;17.30;55.90;;;;;;5067151;28;20474;-87
2022/04/11 14:36:41;;;;;;;7.43;3.80;;;17.30;55.60;;;;;;5067283;28;20451;-88
2022/04/11 14:39:08;;;;;;;6.77;3.83;;;17.30;55.80;;;;;;5066954;28;20477;-86
2022/04/11 14:41:36;;;;;;;5.27;3.57;;;17.30;55.90;;;;;;5066192;28;20427;-86
2022/04/11 14:44:03;;;;;;;6.10;3.40;;;17.30;55.80;;;;;;5067551;28;20854;-87
2022/04/11 14:46:30;;;;;;;5.00;3.50;;;17.40;55.50;;;;;;5066564;28;20431;-86
2022/04/11 14:48:57;;;;;;;5.93;3.90;;;17.30;55.00;;;;;;5071002;28;20435;-89
2022/04/11 14:51:28;;;;;;;6.73;3.77;;;17.50;55.30;;;;;;5071465;28;20480;-89
2022/04/11 14:53:55;;;;;;;6.10;4.10;;;17.70;54.70;;;;;;5067267;28;20415;-88
2022/04/11 14:56:23;;;;;;;4.93;3.33;;;17.80;53.80;;;;;;5067054;28;20455;-88
2022/04/11 14:58:51;;;;;;;5.83;3.83;;;17.90;54.20;;;;;;5072626;28;20421;-88
2022/04/11 15:01:18;;;;;;;4.60;3.23;;;18.10;54.40;;;;;;5078137;28;20834;-88
2022/04/11 15:03:47;;;;;;;5.33;3.37;;;18.10;54.20;;;;;;5077900;28;20437;-87
2022/04/11 15:06:14;;;;;;;6.20;4.00;;;18.40;54.10;;;;;;5078006;28;20600;-87
2022/04/11 15:08:44;;;;;;;9.30;3.80;;;18.50;53.20;;;;;;5077983;28;20544;-87
2022/04/11 15:11:11;;;;;;;5.47;3.87;;;18.50;53.60;;;;;;5071375;28;20448;-87
2022/04/11 15:13:43;;;;;;;7.80;3.40;;;18.30;53.70;;;;;;5069467;28;20445;-86
2022/04/11 15:16:12;;;;;;;7.27;4.47;;;18.50;54.40;;;;;;5068156;28;20527;-87
2022/04/11 15:18:39;;;;;;;6.60;3.43;;;18.60;54.40;;;;;;5071862;28;20461;-88
2022/04/11 15:21:06;;;;;;;5.47;3.70;;;18.50;54.60;;;;;;5076723;28;20442;-87
2022/04/11 15:23:34;;;;;;;5.90;4.00;;;18.50;54.50;;;;;;5076225;28;20465;-87
2022/04/11 15:26:01;;;;;;;8.70;3.73;;;18.80;54.60;;;;;;5077282;28;20445;-87
2022/04/11 15:28:29;;;;;;;6.80;4.17;;;19.00;53.80;;;;;;5076502;28;20445;-88
2022/04/11 15:30:56;;;;;;;5.10;3.40;;;19.10;53.20;;;;;;5076931;28;20468;-86
2022/04/11 15:33:26;;;;;;;5.77;3.87;;;19.20;52.80;;;;;;5078071;28;20469;-85
2022/04/11 15:35:53;;;;;;;6.50;4.40;;;19.30;52.80;;;;;;5078107;28;20473;-85
2022/04/11 15:38:20;;;;;;;6.40;3.97;;;19.20;52.60;;;;;;5074803;28;20459;-87
2022/04/11 15:40:49;;;;;;;6.00;4.07;;;19.00;53.10;;;;;;5072789;28;20419;-87
2022/04/11 15:43:26;;;;;;;6.57;3.73;;;19.10;53.20;;;;;;5071528;28;20465;-87
2022/04/11 15:46:03;;;;;;;7.37;5.50;;;19.20;53.00;;;;;;5069816;28;20540;-88
2022/04/11 15:48:41;;;;;;;5.60;4.27;;;19.10;53.10;;;;;;5066712;28;20452;-87
2022/04/11 15:51:11;;;;;;;5.97;3.70;;;19.30;53.10;;;;;;5065242;28;20424;-87
2022/04/11 15:53:38;;;;;;;6.37;4.40;;;19.20;52.70;;;;;;5066701;28;20452;-88
2022/04/11 15:56:15;;;;;;;5.97;3.97;;;19.40;53.10;;;;;;5066011;28;20663;-88
2022/04/11 15:59:11;;;;;;;7.13;4.13;;;19.20;52.90;;;;;;5066635;28;20461;-87
2022/04/11 16:01:47;;;;;;;6.63;4.67;;;18.90;53.10;;;;;;5075146;28;20879;-87
2022/04/11 16:04:17;;;;;;;7.40;4.47;;;18.80;53.20;;;;;;5068025;28;20441;-87
2022/04/11 16:06:45;;;;;;;6.10;4.50;;;18.60;53.30;;;;;;5067316;28;20583;-86
2022/04/11 16:09:15;;;;;;;6.80;4.13;;;18.40;54.10;;;;;;5069143;28;20479;-88
2022/04/11 16:11:42;;;;;;;5.53;3.93;;;18.20;53.80;;;;;;5068696;28;20432;-88
2022/04/11 16:14:19;;;;;;;6.50;4.07;;;18.00;54.20;;;;;;5069275;28;20449;-87
2022/04/11 16:16:47;;;;;;;8.03;4.37;;;17.80;55.00;;;;;;5070043;28;20518;-87
2022/04/11 16:19:19;;;;;;;5.63;4.20;;;17.70;54.90;;;;;;5070433;28;20435;-87
2022/04/11 16:21:49;;;;;;;5.67;3.53;;;17.60;54.80;;;;;;5068416;28;20456;-86
2022/04/11 16:24:16;;;;;;;6.10;3.80;;;17.30;55.50;;;;;;5066085;28;20484;-87
2022/04/11 16:26:43;;;;;;;8.33;3.97;;;17.40;55.70;;;;;;5064910;28;20459;-86
2022/04/11 16:29:14;;;;;;;5.77;3.80;;;17.20;55.60;;;;;;5065354;28;20464;-87
2022/04/11 16:31:43;;;;;;;6.80;4.50;;;17.10;56.10;;;;;;5064017;28;20414;-87
2022/04/11 16:34:11;;;;;;;6.27;4.47;;;17.00;56.50;;;;;;5063893;28;20437;-88
2022/04/11 16:36:56;;;;;;;6.33;4.73;;;17.00;56.50;;;;;;5063606;28;20596;-87
2022/04/11 16:39:23;;;;;;;5.33;3.90;;;17.10;56.70;;;;;;5065124;28;20425;-88
2022/04/11 16:41:51;;;;;;;6.30;3.67;;;17.00;56.50;;;;;;5069472;28;20465;-88
2022/04/11 16:44:18;;;;;;;6.67;3.80;;;16.90;56.50;;;;;;5065465;28;20457;-87
2022/04/11 16:46:52;;;;;;;6.10;3.90;;;17.00;56.90;;;;;;5063109;28;20477;-88
2022/04/11 16:49:21;;;;;;;7.97;3.70;;;17.00;56.90;;;;;;5062309;28;20512;-87
2022/04/11 16:51:55;;;;;;;7.60;3.80;;;17.10;57.00;;;;;;5062545;28;20518;-87
2022/04/11 16:54:31;;;;;;;5.40;3.87;;;17.20;56.80;;;;;;5062452;28;20438;-89
2022/04/11 16:57:11;;;;;;;5.90;3.90;;;17.10;57.10;;;;;;5062745;28;20494;-87
2022/04/11 16:59:41;;;;;;;5.93;4.00;;;17.00;57.20;;;;;;5063081;28;20435;-89
2022/04/11 17:05:21;;;;;;;5.83;3.60;;;16.90;57.20;;;;;;5064036;28;20471;-88
2022/04/11 17:11:53;;;;;;;5.77;3.80;;;16.80;57.30;;;;;;5008976;28;20422;-87
2022/04/11 17:14:45;;;;;;;7.60;4.03;;;16.70;57.90;;;;;;5059562;28;20427;-87
2022/04/11 17:20:18;;;;;;;9.73;3.90;;;16.60;58.20;;;;;;5066201;28;20391;-88
2022/04/11 17:22:47;;;;;;;5.60;3.43;;;16.60;58.30;;;;;;5063357;28;20448;-88
2022/04/11 17:25:19;;;;;;;7.40;3.90;;;16.60;58.50;;;;;;5063437;28;20457;-87
2022/04/11 17:27:56;;;;;;;9.00;4.53;;;16.50;58.40;;;;;;5063262;28;20447;-87
2022/04/11 17:30:32;;;;;;;4.93;3.20;;;16.50;58.50;;;;;;5063461;28;20787;-86
2022/04/11 17:33:13;;;;;;;5.30;3.80;;;16.40;58.70;;;;;;5061428;28;20517;-88
2022/04/11 17:35:47;;;;;;;5.63;3.37;;;16.40;59.00;;;;;;5062179;28;20941;-88
2022/04/11 17:38:17;;;;;;;8.80;3.80;;;16.30;59.20;;;;;;5063312;28;20451;-88
2022/04/11 17:40:48;;;;;;;6.73;3.70;;;16.30;59.00;;;;;;5062871;28;20435;-88
2022/04/11 17:43:21;;;;;;;6.60;4.00;;;16.30;59.30;;;;;;5065492;28;20510;-89
2022/04/11 17:46:16;;;;;;;6.30;3.90;;;16.30;59.80;;;;;;5064134;28;20447;-89
2022/04/11 17:48:53;;;;;;;7.43;3.83;;;16.20;60.00;;;;;;5063542;28;20458;-88
2022/04/11 17:51:22;;;;;;;7.87;3.93;;;16.30;60.00;;;;;;5063127;28;20407;-89
2022/04/11 17:53:55;;;;;;;6.73;3.63;;;16.20;59.80;;;;;;5062444;28;20453;-88
2022/04/11 17:56:28;;;;;;;5.07;3.30;;;16.00;60.30;;;;;;5063995;28;20494;-89
2022/04/11 17:58:56;;;;;;;8.20;4.70;;;15.90;60.90;;;;;;5064427;28;20506;-89
2022/04/11 18:01:24;;;;;;;7.37;4.23;;;15.90;61.30;;;;;;5069797;28;20458;-87
2022/04/11 18:03:52;;;;;;;5.93;3.70;;;15.80;61.60;;;;;;5074681;28;20432;-86
2022/04/11 18:06:31;;;;;;;5.70;3.70;;;15.90;61.60;;;;;;5073133;28;20455;-88
2022/04/11 18:09:12;;;;;;;6.63;4.13;;;15.90;61.50;;;;;;5068196;28;20936;-87
2022/04/11 18:12:07;;;;;;;6.77;4.03;;;15.80;62.10;;;;;;5068821;28;20454;-87
2022/04/11 18:14:39;;;;;;;5.97;3.97;;;15.70;62.70;;;;;;5066027;28;20587;-88
2022/04/11 18:17:23;;;;;;;7.23;5.00;;;15.60;63.00;;;;;;5070275;28;20466;-88
2022/04/11 18:19:53;;;;;;;12.53;4.77;;;15.60;63.90;;;;;;5112721;22;20497;-87
2022/04/11 18:22:20;;;;;;;6.93;4.67;;;15.60;63.90;;;;;;5123200;28;20416;-87
2022/04/11 18:24:47;;;;;;;6.50;4.10;;;15.40;64.10;;;;;;5122429;28;20499;-88
2022/04/11 18:27:15;;;;;;;8.43;5.40;;;15.50;64.30;;;;;;5122764;28;20417;-87
2022/04/11 18:35:25;;;;;;;7.07;4.47;;;15.60;64.80;;;;;;5101331;28;20439;-89
2022/04/11 18:38:04;;;;;;;10.17;5.03;;;15.30;65.30;;;;;;5103726;28;20531;-88
2022/04/11 18:40:34;;;;;;;6.57;4.30;;;15.20;66.40;;;;;;5107377;28;20449;-87
2022/04/11 18:43:02;;;;;;;9.40;5.00;;;15.00;66.60;;;;;;5107306;28;20401;-87
2022/04/11 18:45:29;;;;;;;7.40;4.73;;;15.10;69.30;;;;;;5117394;28;20416;-87
2022/04/11 18:48:00;;;;;;;8.70;5.17;;;15.10;69.00;;;;;;5115760;28;20492;-87
2022/04/11 18:50:27;;;;;;;8.20;5.13;;;15.10;70.50;;;;;;5103435;28;20473;-88
2022/04/11 18:53:18;;;;;;;10.60;5.30;;;15.10;70.80;;;;;;5103669;28;20459;-89
2022/04/11 18:55:46;;;;;;;12.80;4.83;;;15.10;71.30;;;;;;5073524;28;20507;-87
2022/04/11 18:58:16;;;;;;;7.43;4.93;;;15.10;71.30;;;;;;5108250;28;20530;-88
2022/04/11 19:00:47;;;;;;;10.83;4.97;;;15.00;71.60;;;;;;5107442;28;20453;-88